sensor_id;sensor_type;location;lat;lon;timestamp;temperature;humidity
56162;DHT22;42045;52.986;6.014;2023-02-16T00:00:19;3.90;99.90
56162;DHT22;42045;52.986;6.014;2023-02-16T00:02:45;4.00;99.90
56162;DHT22;42045;52.986;6.014;2023-02-16T00:05:22;3.90;99.90
56162;DHT22;42045;52.986;6.014;2023-02-16T00:07:48;3.90;99.90
56162;DHT22;42045;52.986;6.014;2023-02-16T00:10:14;3.80;99.90
56162;DHT22;42045;52.986;6.014;2023-02-16T00:12:40;3.90;99.90
56162;DHT22;42045;52.986;6.014;2023-02-16T00:15:24;3.80;99.90
56162;DHT22;42045;52.986;6.014;2023-02-16T00:17:50;3.80;99.90
56162;DHT22;42045;52.986;6.014;2023-02-16T00:20:16;3.70;99.90
56162;DHT22;42045;52.986;6.014;2023-02-16T00:22:43;3.80;99.90
56162;DHT22;42045;52.986;6.014;2023-02-16T00:25:09;3.70;99.90
56162;DHT22;42045;52.986;6.014;2023-02-16T00:27:35;3.60;99.90
56162;DHT22;42045;52.986;6.014;2023-02-16T00:30:02;3.60;99.90
56162;DHT22;42045;52.986;6.014;2023-02-16T00:32:28;3.50;99.90
56162;DHT22;42045;52.986;6.014;2023-02-16T00:34:53;3.60;99.90
56162;DHT22;42045;52.986;6.014;2023-02-16T00:37:19;3.50;99.90
56162;DHT22;42045;52.986;6.014;2023-02-16T00:39:44;3.50;99.90
56162;DHT22;42045;52.986;6.014;2023-02-16T00:42:21;3.40;99.90
56162;DHT22;42045;52.986;6.014;2023-02-16T00:44:51;3.40;99.90
56162;DHT22;42045;52.986;6.014;2023-02-16T00:47:31;3.50;99.90
56162;DHT22;42045;52.986;6.014;2023-02-16T00:49:58;3.40;99.90
56162;DHT22;42045;52.986;6.014;2023-02-16T00:52:37;3.40;99.90
56162;DHT22;42045;52.986;6.014;2023-02-16T00:55:07;3.40;99.90
56162;DHT22;42045;52.986;6.014;2023-02-16T00:57:37;3.50;99.90
56162;DHT22;42045;52.986;6.014;2023-02-16T01:00:14;3.50;99.90
56162;DHT22;42045;52.986;6.014;2023-02-16T01:02:43;3.50;99.90
56162;DHT22;42045;52.986;6.014;2023-02-16T01:05:10;3.50;99.90
56162;DHT22;42045;52.986;6.014;2023-02-16T01:07:35;3.50;99.90
56162;DHT22;42045;52.986;6.014;2023-02-16T01:10:20;3.60;99.90
56162;DHT22;42045;52.986;6.014;2023-02-16T01:13:05;3.50;99.90
56162;DHT22;42045;52.986;6.014;2023-02-16T01:15:30;3.50;99.90
56162;DHT22;42045;52.986;6.014;2023-02-16T01:17:56;3.50;99.90
56162;DHT22;42045;52.986;6.014;2023-02-16T01:20:24;3.50;99.90
56162;DHT22;42045;52.986;6.014;2023-02-16T01:22:50;3.60;99.90
56162;DHT22;42045;52.986;6.014;2023-02-16T01:25:16;3.50;99.90
56162;DHT22;42045;52.986;6.014;2023-02-16T01:27:42;3.50;99.90
56162;DHT22;42045;52.986;6.014;2023-02-16T01:30:15;3.50;99.90
56162;DHT22;42045;52.986;6.014;2023-02-16T01:32:41;3.60;99.90
56162;DHT22;42045;52.986;6.014;2023-02-16T01:35:07;3.50;99.90
56162;DHT22;42045;52.986;6.014;2023-02-16T01:37:33;3.60;99.90
56162;DHT22;42045;52.986;6.014;2023-02-16T01:39:59;3.60;99.90
56162;DHT22;42045;52.986;6.014;2023-02-16T01:42:35;3.60;99.90
56162;DHT22;42045;52.986;6.014;2023-02-16T01:45:12;3.60;99.90
56162;DHT22;42045;52.986;6.014;2023-02-16T01:47:51;3.60;99.90
56162;DHT22;42045;52.986;6.014;2023-02-16T01:50:23;3.60;99.90
56162;DHT22;42045;52.986;6.014;2023-02-16T01:52:56;3.70;99.90
56162;DHT22;42045;52.986;6.014;2023-02-16T01:55:29;3.70;99.90
56162;DHT22;42045;52.986;6.014;2023-02-16T01:58:06;3.70;99.90
56162;DHT22;42045;52.986;6.014;2023-02-16T02:03:29;3.70;99.90
56162;DHT22;42045;52.986;6.014;2023-02-16T02:06:18;3.70;99.90
56162;DHT22;42045;52.986;6.014;2023-02-16T02:09:16;3.70;99.90
56162;DHT22;42045;52.986;6.014;2023-02-16T02:11:59;3.70;99.90
56162;DHT22;42045;52.986;6.014;2023-02-16T02:14:32;3.60;99.90
56162;DHT22;42045;52.986;6.014;2023-02-16T02:17:05;3.70;99.90
56162;DHT22;42045;52.986;6.014;2023-02-16T02:19:41;3.70;99.90
56162;DHT22;42045;52.986;6.014;2023-02-16T02:33:25;3.70;99.90
56162;DHT22;42045;52.986;6.014;2023-02-16T02:36:28;3.70;99.90
56162;DHT22;42045;52.986;6.014;2023-02-16T02:44:45;3.80;99.90
56162;DHT22;42045;52.986;6.014;2023-02-16T02:47:13;3.90;99.90
56162;DHT22;42045;52.986;6.014;2023-02-16T02:49:38;3.80;99.90
56162;DHT22;42045;52.986;6.014;2023-02-16T02:52:06;3.90;99.90
56162;DHT22;42045;52.986;6.014;2023-02-16T02:54:37;4.00;99.90
56162;DHT22;42045;52.986;6.014;2023-02-16T02:57:39;4.00;99.90
56162;DHT22;42045;52.986;6.014;2023-02-16T03:00:35;4.10;99.90
56162;DHT22;42045;52.986;6.014;2023-02-16T03:03:14;4.10;99.90
56162;DHT22;42045;52.986;6.014;2023-02-16T03:05:45;4.20;99.90
56162;DHT22;42045;52.986;6.014;2023-02-16T03:08:16;4.30;99.90
56162;DHT22;42045;52.986;6.014;2023-02-16T03:10:53;4.30;99.90
56162;DHT22;42045;52.986;6.014;2023-02-16T03:13:43;4.40;99.90
56162;DHT22;42045;52.986;6.014;2023-02-16T03:16:19;4.40;99.90
56162;DHT22;42045;52.986;6.014;2023-02-16T03:18:47;4.50;99.90
56162;DHT22;42045;52.986;6.014;2023-02-16T03:21:32;4.50;99.90
56162;DHT22;42045;52.986;6.014;2023-02-16T03:24:25;4.60;99.90
56162;DHT22;42045;52.986;6.014;2023-02-16T03:27:12;4.60;99.90
56162;DHT22;42045;52.986;6.014;2023-02-16T03:30:00;4.70;99.90
56162;DHT22;42045;52.986;6.014;2023-02-16T03:32:26;4.80;99.90
56162;DHT22;42045;52.986;6.014;2023-02-16T03:34:52;4.80;99.90
56162;DHT22;42045;52.986;6.014;2023-02-16T03:37:18;4.80;99.90
56162;DHT22;42045;52.986;6.014;2023-02-16T03:39:44;4.90;99.90
56162;DHT22;42045;52.986;6.014;2023-02-16T03:42:28;5.00;99.90
56162;DHT22;42045;52.986;6.014;2023-02-16T03:44:54;4.90;99.90
56162;DHT22;42045;52.986;6.014;2023-02-16T03:47:20;4.90;99.90
56162;DHT22;42045;52.986;6.014;2023-02-16T03:49:45;5.00;99.90
56162;DHT22;42045;52.986;6.014;2023-02-16T03:52:11;5.00;99.90
56162;DHT22;42045;52.986;6.014;2023-02-16T03:54:36;5.00;99.90
56162;DHT22;42045;52.986;6.014;2023-02-16T03:57:02;5.00;99.90
56162;DHT22;42045;52.986;6.014;2023-02-16T03:59:28;5.00;99.90
56162;DHT22;42045;52.986;6.014;2023-02-16T04:01:53;5.00;99.90
56162;DHT22;42045;52.986;6.014;2023-02-16T04:04:19;4.90;99.90
56162;DHT22;42045;52.986;6.014;2023-02-16T04:06:45;5.00;99.90
56162;DHT22;42045;52.986;6.014;2023-02-16T04:09:10;5.00;99.90
56162;DHT22;42045;52.986;6.014;2023-02-16T04:11:36;4.90;99.90
56162;DHT22;42045;52.986;6.014;2023-02-16T04:14:20;4.90;99.90
56162;DHT22;42045;52.986;6.014;2023-02-16T04:16:46;5.00;99.90
56162;DHT22;42045;52.986;6.014;2023-02-16T04:19:11;4.90;99.90
56162;DHT22;42045;52.986;6.014;2023-02-16T04:21:37;5.00;99.90
56162;DHT22;42045;52.986;6.014;2023-02-16T04:24:04;5.00;99.90
56162;DHT22;42045;52.986;6.014;2023-02-16T04:26:31;5.00;99.90
56162;DHT22;42045;52.986;6.014;2023-02-16T04:28:57;5.00;99.90
56162;DHT22;42045;52.986;6.014;2023-02-16T04:31:22;5.00;99.90
56162;DHT22;42045;52.986;6.014;2023-02-16T04:33:48;5.00;99.90
56162;DHT22;42045;52.986;6.014;2023-02-16T04:36:14;5.10;99.90
56162;DHT22;42045;52.986;6.014;2023-02-16T04:38:39;5.10;99.90
56162;DHT22;42045;52.986;6.014;2023-02-16T04:41:05;5.10;99.90
56162;DHT22;42045;52.986;6.014;2023-02-16T04:43:31;5.10;99.90
56162;DHT22;42045;52.986;6.014;2023-02-16T04:45:58;5.20;99.90
56162;DHT22;42045;52.986;6.014;2023-02-16T04:48:23;5.20;99.90
56162;DHT22;42045;52.986;6.014;2023-02-16T04:50:49;5.20;99.90
56162;DHT22;42045;52.986;6.014;2023-02-16T04:53:15;5.20;99.90
56162;DHT22;42045;52.986;6.014;2023-02-16T04:55:48;5.20;99.90
56162;DHT22;42045;52.986;6.014;2023-02-16T04:58:15;5.20;99.90
56162;DHT22;42045;52.986;6.014;2023-02-16T05:00:41;5.20;99.90
56162;DHT22;42045;52.986;6.014;2023-02-16T05:03:07;5.20;99.90
56162;DHT22;42045;52.986;6.014;2023-02-16T05:05:33;5.20;99.90
56162;DHT22;42045;52.986;6.014;2023-02-16T05:08:00;5.20;99.90
56162;DHT22;42045;52.986;6.014;2023-02-16T05:10:26;5.20;99.90
56162;DHT22;42045;52.986;6.014;2023-02-16T05:12:52;5.20;99.90
56162;DHT22;42045;52.986;6.014;2023-02-16T05:15:36;5.20;99.90
56162;DHT22;42045;52.986;6.014;2023-02-16T05:18:02;5.20;99.90
56162;DHT22;42045;52.986;6.014;2023-02-16T05:20:28;5.20;99.90
56162;DHT22;42045;52.986;6.014;2023-02-16T05:23:12;5.20;99.90
56162;DHT22;42045;52.986;6.014;2023-02-16T05:25:38;5.20;99.90
56162;DHT22;42045;52.986;6.014;2023-02-16T05:28:04;5.30;99.90
56162;DHT22;42045;52.986;6.014;2023-02-16T05:30:30;5.20;99.90
56162;DHT22;42045;52.986;6.014;2023-02-16T05:32:56;5.20;99.90
56162;DHT22;42045;52.986;6.014;2023-02-16T05:35:22;5.20;99.90
56162;DHT22;42045;52.986;6.014;2023-02-16T05:37:48;5.20;99.90
56162;DHT22;42045;52.986;6.014;2023-02-16T05:40:13;5.20;99.90
56162;DHT22;42045;52.986;6.014;2023-02-16T05:42:39;5.20;99.90
56162;DHT22;42045;52.986;6.014;2023-02-16T05:45:05;5.20;99.90
56162;DHT22;42045;52.986;6.014;2023-02-16T05:47:31;5.20;99.90
56162;DHT22;42045;52.986;6.014;2023-02-16T05:49:56;5.30;99.90
56162;DHT22;42045;52.986;6.014;2023-02-16T05:52:22;5.10;99.90
56162;DHT22;42045;52.986;6.014;2023-02-16T05:54:48;5.20;99.90
56162;DHT22;42045;52.986;6.014;2023-02-16T05:57:13;5.20;99.90
56162;DHT22;42045;52.986;6.014;2023-02-16T05:59:39;5.20;99.90
56162;DHT22;42045;52.986;6.014;2023-02-16T06:02:05;5.20;99.90
56162;DHT22;42045;52.986;6.014;2023-02-16T06:04:30;5.30;99.90
56162;DHT22;42045;52.986;6.014;2023-02-16T06:06:57;5.30;99.90
56162;DHT22;42045;52.986;6.014;2023-02-16T06:09:22;5.30;99.90
56162;DHT22;42045;52.986;6.014;2023-02-16T06:11:48;5.30;99.90
56162;DHT22;42045;52.986;6.014;2023-02-16T06:14:17;5.20;99.90
56162;DHT22;42045;52.986;6.014;2023-02-16T06:16:45;5.30;99.90
56162;DHT22;42045;52.986;6.014;2023-02-16T06:19:12;5.30;99.90
56162;DHT22;42045;52.986;6.014;2023-02-16T06:21:38;5.30;99.90
56162;DHT22;42045;52.986;6.014;2023-02-16T06:24:05;5.30;99.90
56162;DHT22;42045;52.986;6.014;2023-02-16T06:26:31;5.40;99.90
56162;DHT22;42045;52.986;6.014;2023-02-16T06:28:57;5.40;99.90
56162;DHT22;42045;52.986;6.014;2023-02-16T06:31:23;5.40;99.90
56162;DHT22;42045;52.986;6.014;2023-02-16T06:33:50;5.40;99.90
56162;DHT22;42045;52.986;6.014;2023-02-16T06:36:16;5.40;99.90
56162;DHT22;42045;52.986;6.014;2023-02-16T06:38:42;5.40;99.90
56162;DHT22;42045;52.986;6.014;2023-02-16T06:41:08;5.40;99.90
56162;DHT22;42045;52.986;6.014;2023-02-16T06:43:34;5.40;99.90
56162;DHT22;42045;52.986;6.014;2023-02-16T06:46:00;5.50;99.90
56162;DHT22;42045;52.986;6.014;2023-02-16T06:48:25;5.40;99.90
56162;DHT22;42045;52.986;6.014;2023-02-16T06:50:51;5.50;99.90
56162;DHT22;42045;52.986;6.014;2023-02-16T06:53:17;5.50;99.90
56162;DHT22;42045;52.986;6.014;2023-02-16T06:55:43;5.50;99.90
56162;DHT22;42045;52.986;6.014;2023-02-16T06:58:09;5.50;99.90
56162;DHT22;42045;52.986;6.014;2023-02-16T07:00:35;5.50;99.90
56162;DHT22;42045;52.986;6.014;2023-02-16T07:03:00;5.50;99.90
56162;DHT22;42045;52.986;6.014;2023-02-16T07:05:26;5.50;99.90
56162;DHT22;42045;52.986;6.014;2023-02-16T07:07:52;5.50;99.90
56162;DHT22;42045;52.986;6.014;2023-02-16T07:10:18;5.50;99.90
56162;DHT22;42045;52.986;6.014;2023-02-16T07:12:45;5.60;99.90
56162;DHT22;42045;52.986;6.014;2023-02-16T07:15:11;5.60;99.90
56162;DHT22;42045;52.986;6.014;2023-02-16T07:17:36;5.60;99.90
56162;DHT22;42045;52.986;6.014;2023-02-16T07:20:03;5.60;99.90
56162;DHT22;42045;52.986;6.014;2023-02-16T07:22:30;5.60;99.90
56162;DHT22;42045;52.986;6.014;2023-02-16T07:24:55;5.60;99.90
56162;DHT22;42045;52.986;6.014;2023-02-16T07:27:22;5.60;99.90
56162;DHT22;42045;52.986;6.014;2023-02-16T07:29:48;5.70;99.90
56162;DHT22;42045;52.986;6.014;2023-02-16T07:32:14;5.70;99.90
56162;DHT22;42045;52.986;6.014;2023-02-16T07:34:39;5.70;99.90
56162;DHT22;42045;52.986;6.014;2023-02-16T07:37:05;5.80;99.90
56162;DHT22;42045;52.986;6.014;2023-02-16T07:39:31;5.80;99.90
56162;DHT22;42045;52.986;6.014;2023-02-16T07:41:56;5.80;99.90
56162;DHT22;42045;52.986;6.014;2023-02-16T07:44:22;5.80;99.90
56162;DHT22;42045;52.986;6.014;2023-02-16T07:46:48;5.80;99.90
56162;DHT22;42045;52.986;6.014;2023-02-16T07:49:13;5.90;99.90
56162;DHT22;42045;52.986;6.014;2023-02-16T07:51:39;5.90;99.90
56162;DHT22;42045;52.986;6.014;2023-02-16T07:54:05;5.90;99.90
56162;DHT22;42045;52.986;6.014;2023-02-16T07:56:31;5.90;99.90
56162;DHT22;42045;52.986;6.014;2023-02-16T07:58:59;6.00;99.90
56162;DHT22;42045;52.986;6.014;2023-02-16T08:01:25;6.00;99.90
56162;DHT22;42045;52.986;6.014;2023-02-16T08:03:51;6.00;99.90
56162;DHT22;42045;52.986;6.014;2023-02-16T08:06:18;6.00;99.90
56162;DHT22;42045;52.986;6.014;2023-02-16T08:08:44;6.00;99.90
56162;DHT22;42045;52.986;6.014;2023-02-16T08:11:15;6.10;99.90
56162;DHT22;42045;52.986;6.014;2023-02-16T08:13:42;6.10;99.90
56162;DHT22;42045;52.986;6.014;2023-02-16T08:16:15;6.00;99.90
56162;DHT22;42045;52.986;6.014;2023-02-16T08:18:41;6.10;99.90
56162;DHT22;42045;52.986;6.014;2023-02-16T08:23:43;6.20;99.90
56162;DHT22;42045;52.986;6.014;2023-02-16T08:26:14;6.20;99.90
56162;DHT22;42045;52.986;6.014;2023-02-16T08:28:42;6.20;99.90
56162;DHT22;42045;52.986;6.014;2023-02-16T08:31:29;6.20;99.90
56162;DHT22;42045;52.986;6.014;2023-02-16T08:33:57;6.30;99.90
56162;DHT22;42045;52.986;6.014;2023-02-16T08:36:32;6.20;99.90
56162;DHT22;42045;52.986;6.014;2023-02-16T08:39:00;6.30;99.90
56162;DHT22;42045;52.986;6.014;2023-02-16T08:41:34;6.30;99.90
56162;DHT22;42045;52.986;6.014;2023-02-16T08:44:01;6.30;99.90
56162;DHT22;42045;52.986;6.014;2023-02-16T08:46:28;6.30;99.90
56162;DHT22;42045;52.986;6.014;2023-02-16T08:48:55;6.40;99.90
56162;DHT22;42045;52.986;6.014;2023-02-16T08:51:26;6.30;99.90
56162;DHT22;42045;52.986;6.014;2023-02-16T08:53:53;6.40;99.90
56162;DHT22;42045;52.986;6.014;2023-02-16T08:56:18;6.40;99.90
56162;DHT22;42045;52.986;6.014;2023-02-16T08:58:45;6.40;99.90
56162;DHT22;42045;52.986;6.014;2023-02-16T09:01:11;6.40;99.90
56162;DHT22;42045;52.986;6.014;2023-02-16T09:03:39;6.50;99.90
56162;DHT22;42045;52.986;6.014;2023-02-16T09:06:08;6.50;99.90
56162;DHT22;42045;52.986;6.014;2023-02-16T09:08:35;6.50;99.90
56162;DHT22;42045;52.986;6.014;2023-02-16T09:11:11;6.50;99.90
56162;DHT22;42045;52.986;6.014;2023-02-16T09:13:38;6.60;99.90
56162;DHT22;42045;52.986;6.014;2023-02-16T09:16:10;6.50;99.90
56162;DHT22;42045;52.986;6.014;2023-02-16T09:18:37;6.60;99.90
56162;DHT22;42045;52.986;6.014;2023-02-16T09:23:32;6.60;99.90
56162;DHT22;42045;52.986;6.014;2023-02-16T09:26:00;6.70;99.90
56162;DHT22;42045;52.986;6.014;2023-02-16T09:28:28;6.80;99.90
56162;DHT22;42045;52.986;6.014;2023-02-16T09:30:54;6.90;99.90
56162;DHT22;42045;52.986;6.014;2023-02-16T09:33:19;6.90;99.90
56162;DHT22;42045;52.986;6.014;2023-02-16T09:35:46;7.00;99.90
56162;DHT22;42045;52.986;6.014;2023-02-16T09:38:12;7.00;99.90
56162;DHT22;42045;52.986;6.014;2023-02-16T09:40:41;7.10;99.90
56162;DHT22;42045;52.986;6.014;2023-02-16T09:43:19;7.10;99.90
56162;DHT22;42045;52.986;6.014;2023-02-16T09:45:50;7.20;99.90
56162;DHT22;42045;52.986;6.014;2023-02-16T09:51:00;7.30;99.90
56162;DHT22;42045;52.986;6.014;2023-02-16T09:53:40;7.40;99.90
56162;DHT22;42045;52.986;6.014;2023-02-16T09:58:52;7.40;99.90
56162;DHT22;42045;52.986;6.014;2023-02-16T10:03:53;7.60;99.90
56162;DHT22;42045;52.986;6.014;2023-02-16T10:09:19;7.70;99.90
56162;DHT22;42045;52.986;6.014;2023-02-16T10:14:50;7.60;99.90
56162;DHT22;42045;52.986;6.014;2023-02-16T10:17:24;7.60;99.90
56162;DHT22;42045;52.986;6.014;2023-02-16T10:20:02;7.60;99.90
56162;DHT22;42045;52.986;6.014;2023-02-16T10:22:34;7.60;99.90
56162;DHT22;42045;52.986;6.014;2023-02-16T10:25:10;7.70;99.90
56162;DHT22;42045;52.986;6.014;2023-02-16T10:27:40;7.70;99.90
56162;DHT22;42045;52.986;6.014;2023-02-16T10:30:15;7.60;99.90
56162;DHT22;42045;52.986;6.014;2023-02-16T10:33:05;7.60;99.90
56162;DHT22;42045;52.986;6.014;2023-02-16T10:35:44;7.60;99.90
56162;DHT22;42045;52.986;6.014;2023-02-16T10:38:53;7.60;99.90
56162;DHT22;42045;52.986;6.014;2023-02-16T10:41:32;7.70;99.90
56162;DHT22;42045;52.986;6.014;2023-02-16T10:46:43;7.90;99.90
56162;DHT22;42045;52.986;6.014;2023-02-16T10:49:14;8.00;99.90
56162;DHT22;42045;52.986;6.014;2023-02-16T10:51:44;8.10;99.90
56162;DHT22;42045;52.986;6.014;2023-02-16T10:54:19;8.20;99.90
56162;DHT22;42045;52.986;6.014;2023-02-16T10:59:24;8.20;99.90
56162;DHT22;42045;52.986;6.014;2023-02-16T11:01:56;8.30;99.90
56162;DHT22;42045;52.986;6.014;2023-02-16T11:07:21;8.40;99.90
56162;DHT22;42045;52.986;6.014;2023-02-16T11:09:49;8.50;99.90
56162;DHT22;42045;52.986;6.014;2023-02-16T11:15:19;8.50;99.90
56162;DHT22;42045;52.986;6.014;2023-02-16T11:18:10;8.50;99.90
56162;DHT22;42045;52.986;6.014;2023-02-16T11:23:25;8.50;99.90
56162;DHT22;42045;52.986;6.014;2023-02-16T11:26:04;8.50;99.90
56162;DHT22;42045;52.986;6.014;2023-02-16T11:28:47;8.50;99.90
56162;DHT22;42045;52.986;6.014;2023-02-16T11:33:58;8.60;99.90
56162;DHT22;42045;52.986;6.014;2023-02-16T11:39:05;8.60;99.90
56162;DHT22;42045;52.986;6.014;2023-02-16T11:41:33;8.70;99.90
56162;DHT22;42045;52.986;6.014;2023-02-16T11:44:01;8.80;99.90
56162;DHT22;42045;52.986;6.014;2023-02-16T11:46:28;8.80;99.90
56162;DHT22;42045;52.986;6.014;2023-02-16T11:49:32;8.80;99.90
56162;DHT22;42045;52.986;6.014;2023-02-16T11:51:58;8.80;99.90
56162;DHT22;42045;52.986;6.014;2023-02-16T11:54:23;8.90;99.90
56162;DHT22;42045;52.986;6.014;2023-02-16T11:57:06;8.90;99.90
56162;DHT22;42045;52.986;6.014;2023-02-16T11:59:36;9.00;99.90
56162;DHT22;42045;52.986;6.014;2023-02-16T12:02:11;9.10;99.90
56162;DHT22;42045;52.986;6.014;2023-02-16T12:04:49;9.20;99.90
56162;DHT22;42045;52.986;6.014;2023-02-16T12:07:25;9.20;99.90
56162;DHT22;42045;52.986;6.014;2023-02-16T12:13:25;9.00;99.90
56162;DHT22;42045;52.986;6.014;2023-02-16T12:21:37;8.90;99.90
56162;DHT22;42045;52.986;6.014;2023-02-16T12:26:59;8.90;99.90
56162;DHT22;42045;52.986;6.014;2023-02-16T12:40:17;9.10;99.90
56162;DHT22;42045;52.986;6.014;2023-02-16T12:45:35;9.20;99.90
56162;DHT22;42045;52.986;6.014;2023-02-16T12:51:02;9.20;99.90
56162;DHT22;42045;52.986;6.014;2023-02-16T12:53:56;9.30;99.90
56162;DHT22;42045;52.986;6.014;2023-02-16T12:56:35;9.20;99.90
56162;DHT22;42045;52.986;6.014;2023-02-16T13:01:59;9.30;99.90
56162;DHT22;42045;52.986;6.014;2023-02-16T13:04:44;9.30;99.90
56162;DHT22;42045;52.986;6.014;2023-02-16T13:07:19;9.50;99.90
56162;DHT22;42045;52.986;6.014;2023-02-16T13:12:49;9.80;99.90
56162;DHT22;42045;52.986;6.014;2023-02-16T13:15:31;9.80;99.90
56162;DHT22;42045;52.986;6.014;2023-02-16T13:18:23;9.70;99.90
56162;DHT22;42045;52.986;6.014;2023-02-16T13:20:54;9.50;99.90
56162;DHT22;42045;52.986;6.014;2023-02-16T13:28:58;9.50;99.90
56162;DHT22;42045;52.986;6.014;2023-02-16T13:37:16;9.60;99.90
56162;DHT22;42045;52.986;6.014;2023-02-16T13:40:08;9.60;99.90
56162;DHT22;42045;52.986;6.014;2023-02-16T13:45:32;9.50;99.90
56162;DHT22;42045;52.986;6.014;2023-02-16T13:47:58;9.50;99.90
56162;DHT22;42045;52.986;6.014;2023-02-16T13:50:26;9.40;99.90
56162;DHT22;42045;52.986;6.014;2023-02-16T13:52:55;9.50;99.90
56162;DHT22;42045;52.986;6.014;2023-02-16T13:55:33;9.50;99.90
56162;DHT22;42045;52.986;6.014;2023-02-16T13:58:02;9.50;99.90
56162;DHT22;42045;52.986;6.014;2023-02-16T14:00:38;9.50;99.90
56162;DHT22;42045;52.986;6.014;2023-02-16T14:05:44;9.40;99.90
56162;DHT22;42045;52.986;6.014;2023-02-16T14:13:30;9.50;99.90
56162;DHT22;42045;52.986;6.014;2023-02-16T14:16:03;9.50;99.90
56162;DHT22;42045;52.986;6.014;2023-02-16T14:21:39;9.40;99.90
56162;DHT22;42045;52.986;6.014;2023-02-16T14:24:21;9.50;99.90
56162;DHT22;42045;52.986;6.014;2023-02-16T14:29:41;9.50;99.90
56162;DHT22;42045;52.986;6.014;2023-02-16T14:34:40;9.40;99.90
56162;DHT22;42045;52.986;6.014;2023-02-16T14:39:37;9.40;99.90
56162;DHT22;42045;52.986;6.014;2023-02-16T14:42:12;9.40;99.90
56162;DHT22;42045;52.986;6.014;2023-02-16T14:47:57;9.30;99.90
56162;DHT22;42045;52.986;6.014;2023-02-16T14:56:14;9.10;99.90
56162;DHT22;42045;52.986;6.014;2023-02-16T15:01:20;9.00;99.90
56162;DHT22;42045;52.986;6.014;2023-02-16T15:03:48;9.00;99.90
56162;DHT22;42045;52.986;6.014;2023-02-16T15:06:34;9.00;99.90
56162;DHT22;42045;52.986;6.014;2023-02-16T15:09:05;8.90;99.90
56162;DHT22;42045;52.986;6.014;2023-02-16T15:11:42;8.90;99.90
56162;DHT22;42045;52.986;6.014;2023-02-16T15:14:44;8.90;99.90
56162;DHT22;42045;52.986;6.014;2023-02-16T15:19:50;8.90;99.90
56162;DHT22;42045;52.986;6.014;2023-02-16T15:22:19;8.80;99.90
56162;DHT22;42045;52.986;6.014;2023-02-16T15:24:57;8.90;99.90
56162;DHT22;42045;52.986;6.014;2023-02-16T15:27:23;8.80;99.90
56162;DHT22;42045;52.986;6.014;2023-02-16T15:30:23;8.90;99.90
56162;DHT22;42045;52.986;6.014;2023-02-16T15:32:58;8.90;99.90
56162;DHT22;42045;52.986;6.014;2023-02-16T15:35:34;8.90;99.90
56162;DHT22;42045;52.986;6.014;2023-02-16T15:38:25;8.90;99.90
56162;DHT22;42045;52.986;6.014;2023-02-16T15:40:53;8.90;99.90
56162;DHT22;42045;52.986;6.014;2023-02-16T15:45:56;8.90;99.90
56162;DHT22;42045;52.986;6.014;2023-02-16T15:48:23;8.90;99.90
56162;DHT22;42045;52.986;6.014;2023-02-16T15:50:53;8.90;99.90
56162;DHT22;42045;52.986;6.014;2023-02-16T15:53:36;8.90;99.90
56162;DHT22;42045;52.986;6.014;2023-02-16T16:01:47;8.80;99.90
56162;DHT22;42045;52.986;6.014;2023-02-16T16:04:24;8.80;99.90
56162;DHT22;42045;52.986;6.014;2023-02-16T16:06:50;8.70;99.90
56162;DHT22;42045;52.986;6.014;2023-02-16T16:09:27;8.70;99.90
56162;DHT22;42045;52.986;6.014;2023-02-16T16:11:56;8.60;99.90
56162;DHT22;42045;52.986;6.014;2023-02-16T16:14:23;8.70;99.90
56162;DHT22;42045;52.986;6.014;2023-02-16T16:16:50;8.50;99.90
56162;DHT22;42045;52.986;6.014;2023-02-16T16:19:37;8.60;99.90
56162;DHT22;42045;52.986;6.014;2023-02-16T16:24:58;8.60;99.90
56162;DHT22;42045;52.986;6.014;2023-02-16T16:27:32;8.40;99.90
56162;DHT22;42045;52.986;6.014;2023-02-16T16:30:20;8.40;99.90
56162;DHT22;42045;52.986;6.014;2023-02-16T16:38:06;8.40;99.90
56162;DHT22;42045;52.986;6.014;2023-02-16T16:40:36;8.50;99.90
56162;DHT22;42045;52.986;6.014;2023-02-16T16:48:33;8.40;99.90
56162;DHT22;42045;52.986;6.014;2023-02-16T16:51:11;8.50;99.90
56162;DHT22;42045;52.986;6.014;2023-02-16T16:56:08;8.30;99.90
56162;DHT22;42045;52.986;6.014;2023-02-16T16:58:34;8.50;99.90
56162;DHT22;42045;52.986;6.014;2023-02-16T17:00:59;8.30;99.90
56162;DHT22;42045;52.986;6.014;2023-02-16T17:03:25;8.30;99.90
56162;DHT22;42045;52.986;6.014;2023-02-16T17:05:51;8.50;99.90
56162;DHT22;42045;52.986;6.014;2023-02-16T17:08:16;8.50;99.90
56162;DHT22;42045;52.986;6.014;2023-02-16T17:10:42;8.50;99.90
56162;DHT22;42045;52.986;6.014;2023-02-16T17:13:13;8.40;99.90
56162;DHT22;42045;52.986;6.014;2023-02-16T17:18:43;8.40;99.90
56162;DHT22;42045;52.986;6.014;2023-02-16T17:21:16;8.30;99.90
56162;DHT22;42045;52.986;6.014;2023-02-16T17:23:42;8.30;99.90
56162;DHT22;42045;52.986;6.014;2023-02-16T17:26:08;8.50;99.90
56162;DHT22;42045;52.986;6.014;2023-02-16T17:28:34;8.30;99.90
56162;DHT22;42045;52.986;6.014;2023-02-16T17:31:05;8.30;99.90
56162;DHT22;42045;52.986;6.014;2023-02-16T17:33:30;8.40;99.90
56162;DHT22;42045;52.986;6.014;2023-02-16T17:35:56;8.30;99.90
56162;DHT22;42045;52.986;6.014;2023-02-16T17:38:23;8.50;99.90
56162;DHT22;42045;52.986;6.014;2023-02-16T17:40:50;8.50;99.90
56162;DHT22;42045;52.986;6.014;2023-02-16T17:43:18;8.50;99.90
56162;DHT22;42045;52.986;6.014;2023-02-16T17:45:44;8.50;99.90
56162;DHT22;42045;52.986;6.014;2023-02-16T17:48:26;8.30;99.90
56162;DHT22;42045;52.986;6.014;2023-02-16T17:50:56;8.60;99.90
56162;DHT22;42045;52.986;6.014;2023-02-16T17:53:23;8.50;99.90
56162;DHT22;42045;52.986;6.014;2023-02-16T17:55:52;8.30;99.90
56162;DHT22;42045;52.986;6.014;2023-02-16T17:58:19;8.30;99.90
56162;DHT22;42045;52.986;6.014;2023-02-16T18:00:45;8.50;99.90
56162;DHT22;42045;52.986;6.014;2023-02-16T18:03:11;8.60;99.90
56162;DHT22;42045;52.986;6.014;2023-02-16T18:05:37;8.50;99.90
56162;DHT22;42045;52.986;6.014;2023-02-16T18:08:03;8.50;99.90
56162;DHT22;42045;52.986;6.014;2023-02-16T18:10:51;8.40;99.90
56162;DHT22;42045;52.986;6.014;2023-02-16T19:04:09;8.70;99.90
56162;DHT22;42045;52.986;6.014;2023-02-16T19:06:37;8.70;99.90
56162;DHT22;42045;52.986;6.014;2023-02-16T19:09:03;8.50;99.90
56162;DHT22;42045;52.986;6.014;2023-02-16T19:11:29;8.60;99.90
56162;DHT22;42045;52.986;6.014;2023-02-16T19:13:56;8.70;99.90
56162;DHT22;42045;52.986;6.014;2023-02-16T19:16:21;8.50;99.90
56162;DHT22;42045;52.986;6.014;2023-02-16T19:18:47;8.50;99.90
56162;DHT22;42045;52.986;6.014;2023-02-16T19:21:13;8.40;99.90
56162;DHT22;42045;52.986;6.014;2023-02-16T19:23:40;8.40;99.90
56162;DHT22;42045;52.986;6.014;2023-02-16T19:26:08;8.70;99.90
56162;DHT22;42045;52.986;6.014;2023-02-16T19:28:35;8.70;99.90
56162;DHT22;42045;52.986;6.014;2023-02-16T19:31:03;8.50;99.90
56162;DHT22;42045;52.986;6.014;2023-02-16T19:33:30;8.50;99.90
56162;DHT22;42045;52.986;6.014;2023-02-16T19:36:07;8.50;99.90
56162;DHT22;42045;52.986;6.014;2023-02-16T19:38:34;8.70;99.90
56162;DHT22;42045;52.986;6.014;2023-02-16T19:41:00;8.50;99.90
56162;DHT22;42045;52.986;6.014;2023-02-16T19:43:26;8.60;99.90